Terminal Aerodrome Forecast
Issued by NWS

Home | Current Version | Previous Version | Text Only | Print | Product List | Glossary On
Versions: 1 2 3 4 5 6 7 8 9 10 11 12 13
039
FTUS42 KMLB 021120
TAFSFB
TAF
KSFB 021120Z 0212/0312 14003KT P6SM SCT250
     FM021400 16008KT P6SM SCT040 SCT250
     FM022000 15011KT P6SM VCTS SCT040CB BKN090
     FM030200 17005KT P6SM SCT040 SCT060=

USA.gov is the U.S. government's official web portal to all federal, state and local government web resources and services.